sensor_id;sensor_type;location;lat;lon;timestamp;P1;durP1;ratioP1;P2;durP2;ratioP2
51216;SDS011;37283;49.760;8.648;2023-12-07T00:00:33;9.55;;;7.15;;
51216;SDS011;37283;49.760;8.648;2023-12-07T00:03:04;10.93;;;7.30;;
51216;SDS011;37283;49.760;8.648;2023-12-07T00:05:33;10.35;;;7.97;;
51216;SDS011;37283;49.760;8.648;2023-12-07T00:08:00;10.88;;;7.55;;
51216;SDS011;37283;49.760;8.648;2023-12-07T00:10:26;9.75;;;6.97;;
51216;SDS011;37283;49.760;8.648;2023-12-07T00:12:53;12.32;;;7.68;;
51216;SDS011;37283;49.760;8.648;2023-12-07T00:15:20;10.23;;;7.07;;
51216;SDS011;37283;49.760;8.648;2023-12-07T00:17:46;11.55;;;7.40;;
51216;SDS011;37283;49.760;8.648;2023-12-07T00:20:13;10.82;;;7.57;;
51216;SDS011;37283;49.760;8.648;2023-12-07T00:22:40;16.60;;;8.27;;
51216;SDS011;37283;49.760;8.648;2023-12-07T00:25:08;10.32;;;7.28;;
51216;SDS011;37283;49.760;8.648;2023-12-07T00:27:34;12.27;;;7.15;;
51216;SDS011;37283;49.760;8.648;2023-12-07T00:30:01;10.25;;;6.88;;
51216;SDS011;37283;49.760;8.648;2023-12-07T00:32:28;11.57;;;7.22;;
51216;SDS011;37283;49.760;8.648;2023-12-07T00:34:54;12.18;;;8.38;;
51216;SDS011;37283;49.760;8.648;2023-12-07T00:37:21;13.50;;;7.53;;
51216;SDS011;37283;49.760;8.648;2023-12-07T00:39:48;10.20;;;7.38;;
51216;SDS011;37283;49.760;8.648;2023-12-07T00:42:15;10.00;;;7.85;;
51216;SDS011;37283;49.760;8.648;2023-12-07T00:44:41;12.00;;;7.82;;
51216;SDS011;37283;49.760;8.648;2023-12-07T00:47:10;9.70;;;7.57;;
51216;SDS011;37283;49.760;8.648;2023-12-07T00:49:37;13.25;;;7.90;;
51216;SDS011;37283;49.760;8.648;2023-12-07T00:52:05;12.00;;;7.37;;
51216;SDS011;37283;49.760;8.648;2023-12-07T00:54:32;10.43;;;7.18;;
51216;SDS011;37283;49.760;8.648;2023-12-07T00:56:59;9.48;;;7.07;;
51216;SDS011;37283;49.760;8.648;2023-12-07T00:59:25;12.70;;;7.68;;
51216;SDS011;37283;49.760;8.648;2023-12-07T01:01:52;11.07;;;7.47;;
51216;SDS011;37283;49.760;8.648;2023-12-07T01:04:18;10.85;;;7.03;;
51216;SDS011;37283;49.760;8.648;2023-12-07T01:06:45;11.98;;;7.13;;
51216;SDS011;37283;49.760;8.648;2023-12-07T01:09:12;8.93;;;7.38;;
51216;SDS011;37283;49.760;8.648;2023-12-07T01:11:39;12.20;;;7.35;;
51216;SDS011;37283;49.760;8.648;2023-12-07T01:14:06;12.48;;;7.53;;
51216;SDS011;37283;49.760;8.648;2023-12-07T01:16:33;11.52;;;7.25;;
51216;SDS011;37283;49.760;8.648;2023-12-07T01:18:59;13.75;;;7.45;;
51216;SDS011;37283;49.760;8.648;2023-12-07T01:21:27;18.65;;;9.05;;
51216;SDS011;37283;49.760;8.648;2023-12-07T01:23:54;11.38;;;7.65;;
51216;SDS011;37283;49.760;8.648;2023-12-07T01:26:37;11.68;;;7.93;;
51216;SDS011;37283;49.760;8.648;2023-12-07T01:29:03;12.27;;;7.93;;
51216;SDS011;37283;49.760;8.648;2023-12-07T01:31:30;12.10;;;8.27;;
51216;SDS011;37283;49.760;8.648;2023-12-07T01:33:56;12.35;;;8.10;;
51216;SDS011;37283;49.760;8.648;2023-12-07T01:36:23;11.98;;;8.45;;
51216;SDS011;37283;49.760;8.648;2023-12-07T01:38:50;15.10;;;8.68;;
51216;SDS011;37283;49.760;8.648;2023-12-07T01:41:16;12.98;;;8.18;;
51216;SDS011;37283;49.760;8.648;2023-12-07T01:43:46;11.85;;;7.75;;
51216;SDS011;37283;49.760;8.648;2023-12-07T01:46:13;13.25;;;7.47;;
51216;SDS011;37283;49.760;8.648;2023-12-07T01:48:41;17.60;;;8.32;;
51216;SDS011;37283;49.760;8.648;2023-12-07T01:51:08;13.90;;;8.13;;
51216;SDS011;37283;49.760;8.648;2023-12-07T01:53:35;12.70;;;9.07;;
51216;SDS011;37283;49.760;8.648;2023-12-07T01:56:02;18.83;;;8.90;;
51216;SDS011;37283;49.760;8.648;2023-12-07T01:58:29;13.75;;;9.13;;
51216;SDS011;37283;49.760;8.648;2023-12-07T02:00:57;15.30;;;9.68;;
51216;SDS011;37283;49.760;8.648;2023-12-07T02:03:23;16.63;;;10.55;;
51216;SDS011;37283;49.760;8.648;2023-12-07T02:05:50;16.10;;;10.30;;
51216;SDS011;37283;49.760;8.648;2023-12-07T02:08:17;17.77;;;10.90;;
51216;SDS011;37283;49.760;8.648;2023-12-07T02:10:43;16.10;;;11.77;;
51216;SDS011;37283;49.760;8.648;2023-12-07T02:13:10;15.55;;;10.35;;
51216;SDS011;37283;49.760;8.648;2023-12-07T02:15:37;17.00;;;12.43;;
51216;SDS011;37283;49.760;8.648;2023-12-07T02:20:57;16.10;;;11.60;;
51216;SDS011;37283;49.760;8.648;2023-12-07T02:23:48;17.17;;;11.88;;
51216;SDS011;37283;49.760;8.648;2023-12-07T02:26:18;17.77;;;11.88;;
51216;SDS011;37283;49.760;8.648;2023-12-07T02:28:46;17.40;;;12.27;;
51216;SDS011;37283;49.760;8.648;2023-12-07T02:31:12;16.52;;;11.25;;
51216;SDS011;37283;49.760;8.648;2023-12-07T02:33:39;18.13;;;12.90;;
51216;SDS011;37283;49.760;8.648;2023-12-07T02:36:06;21.83;;;12.65;;
51216;SDS011;37283;49.760;8.648;2023-12-07T02:38:33;18.52;;;12.85;;
51216;SDS011;37283;49.760;8.648;2023-12-07T02:41:00;19.02;;;12.15;;
51216;SDS011;37283;49.760;8.648;2023-12-07T02:43:27;22.70;;;13.50;;
51216;SDS011;37283;49.760;8.648;2023-12-07T02:45:54;15.00;;;12.55;;
51216;SDS011;37283;49.760;8.648;2023-12-07T02:48:21;17.50;;;13.68;;
51216;SDS011;37283;49.760;8.648;2023-12-07T02:50:47;20.25;;;13.15;;
51216;SDS011;37283;49.760;8.648;2023-12-07T02:53:14;19.42;;;12.73;;
51216;SDS011;37283;49.760;8.648;2023-12-07T02:55:40;19.55;;;13.32;;
51216;SDS011;37283;49.760;8.648;2023-12-07T02:58:07;18.98;;;12.57;;
51216;SDS011;37283;49.760;8.648;2023-12-07T03:00:34;18.33;;;14.23;;
51216;SDS011;37283;49.760;8.648;2023-12-07T03:03:00;21.13;;;14.75;;
51216;SDS011;37283;49.760;8.648;2023-12-07T03:05:27;15.07;;;12.48;;
51216;SDS011;37283;49.760;8.648;2023-12-07T03:07:54;22.38;;;13.98;;
51216;SDS011;37283;49.760;8.648;2023-12-07T03:10:20;19.77;;;14.77;;
51216;SDS011;37283;49.760;8.648;2023-12-07T03:12:47;18.95;;;13.70;;
51216;SDS011;37283;49.760;8.648;2023-12-07T03:15:13;22.73;;;14.40;;
51216;SDS011;37283;49.760;8.648;2023-12-07T03:17:40;26.52;;;15.15;;
51216;SDS011;37283;49.760;8.648;2023-12-07T03:20:06;19.73;;;13.98;;
51216;SDS011;37283;49.760;8.648;2023-12-07T03:22:34;19.23;;;13.63;;
51216;SDS011;37283;49.760;8.648;2023-12-07T03:25:01;18.65;;;13.27;;
51216;SDS011;37283;49.760;8.648;2023-12-07T03:27:27;21.35;;;14.63;;
51216;SDS011;37283;49.760;8.648;2023-12-07T03:29:55;19.38;;;12.65;;
51216;SDS011;37283;49.760;8.648;2023-12-07T03:32:22;16.55;;;11.90;;
51216;SDS011;37283;49.760;8.648;2023-12-07T03:34:49;23.48;;;14.05;;
51216;SDS011;37283;49.760;8.648;2023-12-07T03:37:16;17.67;;;12.95;;
51216;SDS011;37283;49.760;8.648;2023-12-07T03:39:43;18.65;;;13.52;;
51216;SDS011;37283;49.760;8.648;2023-12-07T03:42:09;19.52;;;13.20;;
51216;SDS011;37283;49.760;8.648;2023-12-07T03:44:56;18.60;;;12.93;;
51216;SDS011;37283;49.760;8.648;2023-12-07T03:47:22;20.75;;;14.38;;
51216;SDS011;37283;49.760;8.648;2023-12-07T03:49:49;19.25;;;14.57;;
51216;SDS011;37283;49.760;8.648;2023-12-07T03:52:15;17.55;;;13.60;;
51216;SDS011;37283;49.760;8.648;2023-12-07T03:54:42;18.48;;;13.05;;
51216;SDS011;37283;49.760;8.648;2023-12-07T03:57:09;19.60;;;12.48;;
51216;SDS011;37283;49.760;8.648;2023-12-07T03:59:35;20.73;;;13.32;;
51216;SDS011;37283;49.760;8.648;2023-12-07T04:02:03;19.10;;;13.25;;
51216;SDS011;37283;49.760;8.648;2023-12-07T04:04:29;19.38;;;13.13;;
51216;SDS011;37283;49.760;8.648;2023-12-07T04:06:56;22.50;;;14.23;;
51216;SDS011;37283;49.760;8.648;2023-12-07T04:09:23;19.15;;;13.40;;
51216;SDS011;37283;49.760;8.648;2023-12-07T04:11:49;16.48;;;13.20;;
51216;SDS011;37283;49.760;8.648;2023-12-07T04:14:16;19.10;;;14.65;;
51216;SDS011;37283;49.760;8.648;2023-12-07T04:16:42;25.90;;;14.95;;
51216;SDS011;37283;49.760;8.648;2023-12-07T04:19:09;24.75;;;15.38;;
51216;SDS011;37283;49.760;8.648;2023-12-07T04:21:37;23.00;;;15.85;;
51216;SDS011;37283;49.760;8.648;2023-12-07T04:24:04;21.88;;;16.70;;
51216;SDS011;37283;49.760;8.648;2023-12-07T04:26:32;24.07;;;16.80;;
51216;SDS011;37283;49.760;8.648;2023-12-07T04:28:58;24.52;;;17.10;;
51216;SDS011;37283;49.760;8.648;2023-12-07T04:31:25;26.30;;;18.48;;
51216;SDS011;37283;49.760;8.648;2023-12-07T04:33:51;27.13;;;18.23;;
51216;SDS011;37283;49.760;8.648;2023-12-07T04:36:18;26.20;;;19.55;;
51216;SDS011;37283;49.760;8.648;2023-12-07T04:38:45;29.30;;;19.23;;
51216;SDS011;37283;49.760;8.648;2023-12-07T04:41:11;29.90;;;19.63;;
51216;SDS011;37283;49.760;8.648;2023-12-07T04:43:38;28.13;;;19.35;;
51216;SDS011;37283;49.760;8.648;2023-12-07T04:46:05;29.23;;;19.08;;
51216;SDS011;37283;49.760;8.648;2023-12-07T04:48:31;28.27;;;18.65;;
51216;SDS011;37283;49.760;8.648;2023-12-07T04:50:58;27.30;;;19.42;;
51216;SDS011;37283;49.760;8.648;2023-12-07T04:53:26;29.92;;;20.20;;
51216;SDS011;37283;49.760;8.648;2023-12-07T04:55:52;24.10;;;19.10;;
51216;SDS011;37283;49.760;8.648;2023-12-07T04:58:19;34.08;;;21.63;;
51216;SDS011;37283;49.760;8.648;2023-12-07T05:00:45;29.67;;;19.98;;
51216;SDS011;37283;49.760;8.648;2023-12-07T05:03:12;31.70;;;21.73;;
51216;SDS011;37283;49.760;8.648;2023-12-07T05:05:39;32.67;;;22.88;;
51216;SDS011;37283;49.760;8.648;2023-12-07T05:08:05;32.90;;;23.98;;
51216;SDS011;37283;49.760;8.648;2023-12-07T05:10:32;38.15;;;24.15;;
51216;SDS011;37283;49.760;8.648;2023-12-07T05:12:59;28.05;;;21.35;;
51216;SDS011;37283;49.760;8.648;2023-12-07T05:15:26;31.20;;;22.35;;
51216;SDS011;37283;49.760;8.648;2023-12-07T05:17:52;29.52;;;22.13;;
51216;SDS011;37283;49.760;8.648;2023-12-07T05:20:19;32.83;;;23.17;;
51216;SDS011;37283;49.760;8.648;2023-12-07T05:22:48;36.97;;;24.20;;
51216;SDS011;37283;49.760;8.648;2023-12-07T05:25:15;36.80;;;24.90;;
51216;SDS011;37283;49.760;8.648;2023-12-07T05:27:42;32.08;;;23.25;;
51216;SDS011;37283;49.760;8.648;2023-12-07T05:30:08;35.10;;;23.60;;
51216;SDS011;37283;49.760;8.648;2023-12-07T05:32:35;34.60;;;24.55;;
51216;SDS011;37283;49.760;8.648;2023-12-07T05:35:04;32.17;;;22.77;;
51216;SDS011;37283;49.760;8.648;2023-12-07T05:37:35;34.72;;;24.15;;
51216;SDS011;37283;49.760;8.648;2023-12-07T05:40:01;30.85;;;23.20;;
51216;SDS011;37283;49.760;8.648;2023-12-07T05:42:29;30.88;;;22.48;;
51216;SDS011;37283;49.760;8.648;2023-12-07T05:44:56;34.80;;;24.08;;
51216;SDS011;37283;49.760;8.648;2023-12-07T05:47:22;27.05;;;20.55;;
51216;SDS011;37283;49.760;8.648;2023-12-07T05:49:49;31.55;;;21.27;;
51216;SDS011;37283;49.760;8.648;2023-12-07T05:52:16;29.15;;;21.25;;
51216;SDS011;37283;49.760;8.648;2023-12-07T05:54:42;31.48;;;22.38;;
51216;SDS011;37283;49.760;8.648;2023-12-07T05:57:09;35.38;;;23.60;;
51216;SDS011;37283;49.760;8.648;2023-12-07T05:59:36;29.27;;;21.70;;
51216;SDS011;37283;49.760;8.648;2023-12-07T06:02:04;30.52;;;21.30;;
51216;SDS011;37283;49.760;8.648;2023-12-07T06:04:32;31.08;;;21.95;;
51216;SDS011;37283;49.760;8.648;2023-12-07T06:06:59;34.92;;;23.17;;
51216;SDS011;37283;49.760;8.648;2023-12-07T06:09:26;31.75;;;21.85;;
51216;SDS011;37283;49.760;8.648;2023-12-07T06:11:52;30.75;;;21.90;;
51216;SDS011;37283;49.760;8.648;2023-12-07T06:14:19;33.58;;;22.50;;
51216;SDS011;37283;49.760;8.648;2023-12-07T06:16:45;33.53;;;23.42;;
51216;SDS011;37283;49.760;8.648;2023-12-07T06:19:12;36.13;;;23.33;;
51216;SDS011;37283;49.760;8.648;2023-12-07T06:21:39;41.67;;;27.48;;
51216;SDS011;37283;49.760;8.648;2023-12-07T06:24:05;39.38;;;25.27;;
51216;SDS011;37283;49.760;8.648;2023-12-07T06:26:35;40.10;;;27.00;;
51216;SDS011;37283;49.760;8.648;2023-12-07T06:29:02;45.35;;;28.88;;
51216;SDS011;37283;49.760;8.648;2023-12-07T06:31:28;39.42;;;27.80;;
51216;SDS011;37283;49.760;8.648;2023-12-07T06:33:55;42.50;;;27.92;;
51216;SDS011;37283;49.760;8.648;2023-12-07T06:36:22;45.00;;;27.77;;
51216;SDS011;37283;49.760;8.648;2023-12-07T06:38:49;45.15;;;28.52;;
51216;SDS011;37283;49.760;8.648;2023-12-07T06:41:16;48.90;;;28.88;;
51216;SDS011;37283;49.760;8.648;2023-12-07T06:43:42;45.17;;;28.88;;
51216;SDS011;37283;49.760;8.648;2023-12-07T06:46:11;38.33;;;26.25;;
51216;SDS011;37283;49.760;8.648;2023-12-07T06:48:39;42.30;;;27.02;;
51216;SDS011;37283;49.760;8.648;2023-12-07T06:51:06;38.72;;;26.45;;
51216;SDS011;37283;49.760;8.648;2023-12-07T06:53:35;44.03;;;27.00;;
51216;SDS011;37283;49.760;8.648;2023-12-07T06:56:01;42.70;;;27.08;;
51216;SDS011;37283;49.760;8.648;2023-12-07T06:58:28;37.25;;;24.15;;
51216;SDS011;37283;49.760;8.648;2023-12-07T07:00:55;38.20;;;24.35;;
51216;SDS011;37283;49.760;8.648;2023-12-07T07:03:22;41.53;;;25.60;;
51216;SDS011;37283;49.760;8.648;2023-12-07T07:05:49;38.00;;;25.15;;
51216;SDS011;37283;49.760;8.648;2023-12-07T07:08:15;40.53;;;25.60;;
51216;SDS011;37283;49.760;8.648;2023-12-07T07:10:43;33.10;;;22.75;;
51216;SDS011;37283;49.760;8.648;2023-12-07T07:13:10;36.38;;;23.23;;
51216;SDS011;37283;49.760;8.648;2023-12-07T07:15:37;32.55;;;22.50;;
51216;SDS011;37283;49.760;8.648;2023-12-07T07:18:04;31.67;;;21.95;;
51216;SDS011;37283;49.760;8.648;2023-12-07T07:20:32;30.15;;;21.98;;
51216;SDS011;37283;49.760;8.648;2023-12-07T07:22:58;30.35;;;21.48;;
51216;SDS011;37283;49.760;8.648;2023-12-07T07:25:25;30.77;;;20.98;;
51216;SDS011;37283;49.760;8.648;2023-12-07T07:27:51;29.15;;;20.27;;
51216;SDS011;37283;49.760;8.648;2023-12-07T07:30:22;30.37;;;19.60;;
51216;SDS011;37283;49.760;8.648;2023-12-07T07:32:49;26.95;;;19.85;;
51216;SDS011;37283;49.760;8.648;2023-12-07T07:35:16;30.63;;;20.77;;
51216;SDS011;37283;49.760;8.648;2023-12-07T07:37:43;28.48;;;19.80;;
51216;SDS011;37283;49.760;8.648;2023-12-07T07:40:10;26.25;;;19.90;;
51216;SDS011;37283;49.760;8.648;2023-12-07T07:42:38;25.35;;;19.30;;
51216;SDS011;37283;49.760;8.648;2023-12-07T07:45:06;24.30;;;18.83;;
51216;SDS011;37283;49.760;8.648;2023-12-07T07:47:34;35.28;;;23.60;;
51216;SDS011;37283;49.760;8.648;2023-12-07T07:50:00;35.15;;;24.02;;
51216;SDS011;37283;49.760;8.648;2023-12-07T07:52:32;36.13;;;23.73;;
51216;SDS011;37283;49.760;8.648;2023-12-07T07:55:05;40.25;;;25.02;;
51216;SDS011;37283;49.760;8.648;2023-12-07T07:57:33;32.45;;;22.38;;
51216;SDS011;37283;49.760;8.648;2023-12-07T08:00:00;33.05;;;22.48;;
51216;SDS011;37283;49.760;8.648;2023-12-07T08:02:26;34.00;;;21.77;;
51216;SDS011;37283;49.760;8.648;2023-12-07T08:04:53;27.42;;;20.73;;
51216;SDS011;37283;49.760;8.648;2023-12-07T08:07:19;29.60;;;20.83;;
51216;SDS011;37283;49.760;8.648;2023-12-07T08:09:46;28.02;;;21.63;;
51216;SDS011;37283;49.760;8.648;2023-12-07T08:12:13;32.53;;;21.27;;
51216;SDS011;37283;49.760;8.648;2023-12-07T08:14:39;29.83;;;20.52;;
51216;SDS011;37283;49.760;8.648;2023-12-07T08:17:06;26.95;;;20.10;;
51216;SDS011;37283;49.760;8.648;2023-12-07T08:19:32;26.13;;;19.00;;
51216;SDS011;37283;49.760;8.648;2023-12-07T08:21:59;26.80;;;19.33;;
51216;SDS011;37283;49.760;8.648;2023-12-07T08:24:26;24.90;;;18.63;;
51216;SDS011;37283;49.760;8.648;2023-12-07T08:26:52;22.48;;;16.00;;
51216;SDS011;37283;49.760;8.648;2023-12-07T08:29:19;23.30;;;16.42;;
51216;SDS011;37283;49.760;8.648;2023-12-07T08:31:45;24.40;;;17.65;;
51216;SDS011;37283;49.760;8.648;2023-12-07T08:34:13;23.67;;;16.60;;
51216;SDS011;37283;49.760;8.648;2023-12-07T08:36:40;20.63;;;15.35;;
51216;SDS011;37283;49.760;8.648;2023-12-07T08:39:07;22.17;;;15.45;;
51216;SDS011;37283;49.760;8.648;2023-12-07T08:41:36;21.75;;;16.15;;
51216;SDS011;37283;49.760;8.648;2023-12-07T08:44:03;23.70;;;16.58;;
51216;SDS011;37283;49.760;8.648;2023-12-07T08:46:31;23.00;;;16.15;;
51216;SDS011;37283;49.760;8.648;2023-12-07T08:48:58;24.88;;;17.73;;
51216;SDS011;37283;49.760;8.648;2023-12-07T08:51:25;24.20;;;16.48;;
51216;SDS011;37283;49.760;8.648;2023-12-07T08:53:51;20.75;;;15.90;;
51216;SDS011;37283;49.760;8.648;2023-12-07T08:56:20;23.70;;;16.30;;
51216;SDS011;37283;49.760;8.648;2023-12-07T08:58:46;23.88;;;16.13;;
51216;SDS011;37283;49.760;8.648;2023-12-07T09:01:13;18.35;;;14.85;;
51216;SDS011;37283;49.760;8.648;2023-12-07T09:03:57;22.38;;;15.07;;
51216;SDS011;37283;49.760;8.648;2023-12-07T09:06:23;18.58;;;13.68;;
51216;SDS011;37283;49.760;8.648;2023-12-07T09:08:50;22.48;;;14.18;;
51216;SDS011;37283;49.760;8.648;2023-12-07T09:11:17;23.95;;;15.40;;
51216;SDS011;37283;49.760;8.648;2023-12-07T09:13:43;20.23;;;14.82;;
51216;SDS011;37283;49.760;8.648;2023-12-07T09:16:10;21.40;;;15.40;;
51216;SDS011;37283;49.760;8.648;2023-12-07T09:18:36;19.67;;;15.45;;
51216;SDS011;37283;49.760;8.648;2023-12-07T09:21:03;22.65;;;15.85;;
51216;SDS011;37283;49.760;8.648;2023-12-07T09:23:30;20.05;;;15.98;;
51216;SDS011;37283;49.760;8.648;2023-12-07T09:25:57;21.95;;;15.60;;
51216;SDS011;37283;49.760;8.648;2023-12-07T09:28:24;19.48;;;14.63;;
51216;SDS011;37283;49.760;8.648;2023-12-07T09:30:50;20.98;;;14.40;;
51216;SDS011;37283;49.760;8.648;2023-12-07T09:33:18;19.65;;;14.75;;
51216;SDS011;37283;49.760;8.648;2023-12-07T09:38:13;24.75;;;15.82;;
51216;SDS011;37283;49.760;8.648;2023-12-07T09:40:40;19.80;;;15.80;;
51216;SDS011;37283;49.760;8.648;2023-12-07T09:43:07;23.80;;;17.55;;
51216;SDS011;37283;49.760;8.648;2023-12-07T09:45:34;27.58;;;20.05;;
51216;SDS011;37283;49.760;8.648;2023-12-07T09:48:00;29.30;;;21.00;;
51216;SDS011;37283;49.760;8.648;2023-12-07T09:50:29;26.65;;;20.90;;
51216;SDS011;37283;49.760;8.648;2023-12-07T09:52:56;32.58;;;20.73;;
51216;SDS011;37283;49.760;8.648;2023-12-07T09:55:34;30.92;;;21.60;;
51216;SDS011;37283;49.760;8.648;2023-12-07T09:58:03;34.90;;;24.58;;
51216;SDS011;37283;49.760;8.648;2023-12-07T10:00:31;37.15;;;24.80;;
51216;SDS011;37283;49.760;8.648;2023-12-07T10:02:59;37.25;;;25.63;;
51216;SDS011;37283;49.760;8.648;2023-12-07T10:05:26;34.63;;;25.08;;
51216;SDS011;37283;49.760;8.648;2023-12-07T10:07:53;40.65;;;28.35;;
51216;SDS011;37283;49.760;8.648;2023-12-07T10:10:19;39.85;;;28.58;;
51216;SDS011;37283;49.760;8.648;2023-12-07T10:12:55;39.65;;;29.70;;
51216;SDS011;37283;49.760;8.648;2023-12-07T10:15:24;40.90;;;29.55;;
51216;SDS011;37283;49.760;8.648;2023-12-07T10:17:52;40.97;;;29.70;;
51216;SDS011;37283;49.760;8.648;2023-12-07T10:20:21;40.83;;;28.35;;
51216;SDS011;37283;49.760;8.648;2023-12-07T10:23:05;38.63;;;27.95;;
51216;SDS011;37283;49.760;8.648;2023-12-07T10:25:37;37.58;;;27.67;;
51216;SDS011;37283;49.760;8.648;2023-12-07T10:28:05;40.40;;;28.10;;
51216;SDS011;37283;49.760;8.648;2023-12-07T10:30:34;37.40;;;27.95;;
51216;SDS011;37283;49.760;8.648;2023-12-07T10:33:02;41.40;;;28.20;;
51216;SDS011;37283;49.760;8.648;2023-12-07T10:35:38;42.65;;;29.38;;
51216;SDS011;37283;49.760;8.648;2023-12-07T10:38:10;39.88;;;28.88;;
51216;SDS011;37283;49.760;8.648;2023-12-07T10:40:38;44.93;;;30.10;;
51216;SDS011;37283;49.760;8.648;2023-12-07T10:43:06;44.38;;;29.48;;
51216;SDS011;37283;49.760;8.648;2023-12-07T10:45:33;47.28;;;30.48;;
51216;SDS011;37283;49.760;8.648;2023-12-07T10:48:10;46.95;;;30.00;;
51216;SDS011;37283;49.760;8.648;2023-12-07T10:50:40;70.68;;;33.05;;
51216;SDS011;37283;49.760;8.648;2023-12-07T10:53:11;59.85;;;29.83;;
51216;SDS011;37283;49.760;8.648;2023-12-07T10:55:47;89.55;;;31.27;;
51216;SDS011;37283;49.760;8.648;2023-12-07T10:58:17;69.30;;;28.85;;
51216;SDS011;37283;49.760;8.648;2023-12-07T11:00:44;113.22;;;30.55;;
51216;SDS011;37283;49.760;8.648;2023-12-07T11:03:15;203.68;;;31.63;;
51216;SDS011;37283;49.760;8.648;2023-12-07T11:05:46;365.75;;;33.33;;
51216;SDS011;37283;49.760;8.648;2023-12-07T11:08:16;250.57;;;32.30;;
51216;SDS011;37283;49.760;8.648;2023-12-07T11:10:58;113.18;;;28.20;;
51216;SDS011;37283;49.760;8.648;2023-12-07T11:13:32;343.40;;;38.38;;
51216;SDS011;37283;49.760;8.648;2023-12-07T11:16:00;577.38;;;43.50;;
51216;SDS011;37283;49.760;8.648;2023-12-07T11:18:27;161.85;;;30.48;;
51216;SDS011;37283;49.760;8.648;2023-12-07T11:20:55;330.38;;;38.22;;
51216;SDS011;37283;49.760;8.648;2023-12-07T11:23:23;323.67;;;35.90;;
51216;SDS011;37283;49.760;8.648;2023-12-07T11:25:52;181.80;;;31.30;;
51216;SDS011;37283;49.760;8.648;2023-12-07T11:28:19;154.80;;;29.50;;
51216;SDS011;37283;49.760;8.648;2023-12-07T11:31:00;296.10;;;34.25;;
51216;SDS011;37283;49.760;8.648;2023-12-07T11:33:29;158.93;;;31.75;;
51216;SDS011;37283;49.760;8.648;2023-12-07T11:36:02;131.93;;;28.98;;
51216;SDS011;37283;49.760;8.648;2023-12-07T11:38:29;212.60;;;32.40;;
51216;SDS011;37283;49.760;8.648;2023-12-07T11:40:56;88.40;;;29.90;;
51216;SDS011;37283;49.760;8.648;2023-12-07T11:45:59;91.47;;;31.20;;
51216;SDS011;37283;49.760;8.648;2023-12-07T11:48:26;126.78;;;29.70;;
51216;SDS011;37283;49.760;8.648;2023-12-07T11:50:59;106.28;;;29.25;;
51216;SDS011;37283;49.760;8.648;2023-12-07T11:53:31;89.53;;;30.63;;
51216;SDS011;37283;49.760;8.648;2023-12-07T11:55:59;132.73;;;32.90;;
51216;SDS011;37283;49.760;8.648;2023-12-07T11:58:30;96.53;;;30.25;;
51216;SDS011;37283;49.760;8.648;2023-12-07T12:01:03;113.00;;;30.55;;
51216;SDS011;37283;49.760;8.648;2023-12-07T12:03:31;57.35;;;30.70;;
51216;SDS011;37283;49.760;8.648;2023-12-07T12:06:03;183.73;;;32.28;;
51216;SDS011;37283;49.760;8.648;2023-12-07T12:08:31;105.25;;;32.33;;
51216;SDS011;37283;49.760;8.648;2023-12-07T12:10:58;104.93;;;28.63;;
51216;SDS011;37283;49.760;8.648;2023-12-07T12:13:29;227.20;;;32.63;;
51216;SDS011;37283;49.760;8.648;2023-12-07T12:15:58;154.63;;;32.55;;
51216;SDS011;37283;49.760;8.648;2023-12-07T12:18:30;148.63;;;34.08;;
51216;SDS011;37283;49.760;8.648;2023-12-07T12:20:57;64.50;;;33.13;;
51216;SDS011;37283;49.760;8.648;2023-12-07T12:23:27;181.13;;;37.47;;
51216;SDS011;37283;49.760;8.648;2023-12-07T12:25:55;234.40;;;41.35;;
51216;SDS011;37283;49.760;8.648;2023-12-07T12:28:22;206.63;;;41.30;;
51216;SDS011;37283;49.760;8.648;2023-12-07T12:30:50;255.90;;;45.65;;
51216;SDS011;37283;49.760;8.648;2023-12-07T12:33:17;94.25;;;38.60;;
51216;SDS011;37283;49.760;8.648;2023-12-07T12:35:43;122.00;;;35.00;;
51216;SDS011;37283;49.760;8.648;2023-12-07T12:38:11;190.63;;;71.90;;
51216;SDS011;37283;49.760;8.648;2023-12-07T12:40:52;189.85;;;47.85;;
51216;SDS011;37283;49.760;8.648;2023-12-07T12:43:20;121.55;;;45.10;;
51216;SDS011;37283;49.760;8.648;2023-12-07T12:45:48;181.88;;;36.83;;
51216;SDS011;37283;49.760;8.648;2023-12-07T12:48:31;108.93;;;42.25;;
51216;SDS011;37283;49.760;8.648;2023-12-07T12:50:59;152.02;;;43.20;;
51216;SDS011;37283;49.760;8.648;2023-12-07T12:53:34;353.48;;;76.60;;
51216;SDS011;37283;49.760;8.648;2023-12-07T12:56:01;129.63;;;38.20;;
51216;SDS011;37283;49.760;8.648;2023-12-07T12:58:27;146.60;;;38.92;;
51216;SDS011;37283;49.760;8.648;2023-12-07T13:00:54;88.50;;;33.88;;
51216;SDS011;37283;49.760;8.648;2023-12-07T13:03:21;88.10;;;34.83;;
51216;SDS011;37283;49.760;8.648;2023-12-07T13:05:48;120.65;;;35.05;;
51216;SDS011;37283;49.760;8.648;2023-12-07T13:08:15;56.90;;;32.60;;
51216;SDS011;37283;49.760;8.648;2023-12-07T13:10:42;62.53;;;33.70;;
51216;SDS011;37283;49.760;8.648;2023-12-07T13:13:08;69.32;;;31.80;;
51216;SDS011;37283;49.760;8.648;2023-12-07T13:15:35;85.32;;;33.47;;
51216;SDS011;37283;49.760;8.648;2023-12-07T13:18:02;218.80;;;37.95;;
51216;SDS011;37283;49.760;8.648;2023-12-07T13:20:33;50.38;;;30.83;;
51216;SDS011;37283;49.760;8.648;2023-12-07T13:23:18;58.85;;;33.20;;
51216;SDS011;37283;49.760;8.648;2023-12-07T13:25:45;306.48;;;38.40;;
51216;SDS011;37283;49.760;8.648;2023-12-07T13:28:11;147.90;;;35.22;;
51216;SDS011;37283;49.760;8.648;2023-12-07T13:30:38;261.15;;;39.17;;
51216;SDS011;37283;49.760;8.648;2023-12-07T13:33:05;335.50;;;43.45;;
51216;SDS011;37283;49.760;8.648;2023-12-07T13:35:50;243.93;;;37.58;;
51216;SDS011;37283;49.760;8.648;2023-12-07T13:38:18;178.43;;;35.08;;
51216;SDS011;37283;49.760;8.648;2023-12-07T13:40:47;91.85;;;33.38;;
51216;SDS011;37283;49.760;8.648;2023-12-07T13:43:15;83.22;;;32.50;;
51216;SDS011;37283;49.760;8.648;2023-12-07T13:45:44;105.97;;;32.50;;
51216;SDS011;37283;49.760;8.648;2023-12-07T13:48:10;68.80;;;32.40;;
51216;SDS011;37283;49.760;8.648;2023-12-07T13:50:39;93.93;;;34.83;;
51216;SDS011;37283;49.760;8.648;2023-12-07T13:53:06;150.93;;;38.58;;
51216;SDS011;37283;49.760;8.648;2023-12-07T13:55:36;104.28;;;37.42;;
51216;SDS011;37283;49.760;8.648;2023-12-07T13:58:03;106.35;;;37.25;;
51216;SDS011;37283;49.760;8.648;2023-12-07T14:00:30;78.15;;;36.30;;
51216;SDS011;37283;49.760;8.648;2023-12-07T14:02:58;184.02;;;40.28;;
51216;SDS011;37283;49.760;8.648;2023-12-07T14:05:24;62.08;;;36.15;;
51216;SDS011;37283;49.760;8.648;2023-12-07T14:07:51;358.08;;;41.00;;
51216;SDS011;37283;49.760;8.648;2023-12-07T14:10:18;209.48;;;35.38;;
51216;SDS011;37283;49.760;8.648;2023-12-07T14:12:44;228.05;;;39.33;;
51216;SDS011;37283;49.760;8.648;2023-12-07T14:15:11;299.05;;;40.03;;
51216;SDS011;37283;49.760;8.648;2023-12-07T14:17:37;287.58;;;37.85;;
51216;SDS011;37283;49.760;8.648;2023-12-07T14:20:18;148.80;;;37.80;;
51216;SDS011;37283;49.760;8.648;2023-12-07T14:23:07;394.40;;;42.55;;
51216;SDS011;37283;49.760;8.648;2023-12-07T14:25:33;100.15;;;36.08;;
51216;SDS011;37283;49.760;8.648;2023-12-07T14:28:00;62.90;;;34.15;;
51216;SDS011;37283;49.760;8.648;2023-12-07T14:30:26;71.35;;;35.78;;
51216;SDS011;37283;49.760;8.648;2023-12-07T14:32:53;109.80;;;36.83;;